createdAt,value
2018-01-31T09:12:54.246Z,81.10
2018-01-31T09:15:21.591Z,91.90
2018-01-31T09:17:48.925Z,75.00
2018-01-31T09:20:16.290Z,81.53
2018-01-31T09:22:43.553Z,62.07
2018-01-31T09:25:10.809Z,56.30
2018-01-31T09:27:38.034Z,45.33
2018-01-31T09:30:05.406Z,50.87
2018-01-31T09:32:32.657Z,59.43
2018-01-31T09:34:59.880Z,52.53
2018-01-31T09:37:27.111Z,46.00
2018-01-31T09:39:54.352Z,44.90
2018-01-31T09:42:21.578Z,38.63
2018-01-31T09:44:48.906Z,40.90
2018-01-31T09:47:16.360Z,53.63
2018-01-31T09:49:43.753Z,30.20
2018-01-31T09:52:11.669Z,27.53
2018-01-31T09:54:38.933Z,24.67
2018-01-31T09:57:06.157Z,21.80
2018-01-31T09:59:33.397Z,19.57
2018-01-31T10:02:00.638Z,17.97
2018-01-31T10:04:27.849Z,16.50
2018-01-31T10:06:55.084Z,17.57
2018-01-31T10:09:22.308Z,14.97
2018-01-31T10:11:49.573Z,13.27
2018-01-31T10:14:17.914Z,30.37
2018-01-31T10:16:45.158Z,48.57
2018-01-31T10:19:12.542Z,36.63
2018-01-31T10:21:39.890Z,20.53
2018-01-31T10:24:07.117Z,19.97
2018-01-31T10:26:34.369Z,15.07
2018-01-31T10:29:01.608Z,11.73
2018-01-31T10:31:28.871Z,9.47
2018-01-31T10:33:56.098Z,8.97
2018-01-31T10:36:23.443Z,8.20
2018-01-31T10:38:50.961Z,7.00
2018-01-31T10:41:18.445Z,7.40
2018-01-31T10:43:45.929Z,6.63
2018-01-31T10:46:13.215Z,6.50
2018-01-31T10:48:40.662Z,26.57
2018-01-31T10:51:07.891Z,20.77
2018-01-31T10:58:30.441Z,23.37
2018-01-31T11:00:57.853Z,22.73
2018-01-31T11:03:25.134Z,19.97
2018-01-31T11:05:52.358Z,10.23
2018-01-31T11:08:19.590Z,6.70
2018-01-31T11:10:46.813Z,23.70
2018-01-31T11:13:14.053Z,141.97
2018-01-31T11:15:41.298Z,100.63
2018-01-31T11:18:08.978Z,68.67
2018-01-31T11:20:36.589Z,65.43
2018-01-31T11:23:03.894Z,56.23
2018-01-31T11:25:31.409Z,63.43
2018-01-31T11:27:58.641Z,87.17
2018-01-31T11:30:25.874Z,76.60
2018-01-31T11:32:53.154Z,72.90
2018-01-31T11:35:20.560Z,97.70
2018-01-31T11:37:47.928Z,128.83
2018-01-31T11:40:15.269Z,55.13
2018-01-31T11:42:42.778Z,38.57
2018-01-31T11:45:10.009Z,45.63
2018-01-31T11:47:37.345Z,62.23
2018-01-31T11:50:04.569Z,43.60
2018-01-31T11:52:31.803Z,33.10
2018-01-31T11:54:59.188Z,28.33
2018-01-31T11:57:26.543Z,20.57
2018-01-31T11:59:53.845Z,20.03
2018-01-31T12:02:21.225Z,16.13
2018-01-31T12:04:48.718Z,17.00
